Terminal Aerodrome Forecast
Issued by NWS

Home | Current Version | Previous Version | Text Only | Print | Product List | Glossary On
Versions: 1 2 3 4 5 6 7 8 9 10 11 12
000
FTUS42 TJSJ 282300
TAFNCM
TAF
TNCM 282335Z 2900/2924 10008KT P6SM VCSH FEW020
     FM290600 11013KT P6SM VCSH SCT018 SCT025
     FM291800 11010KT P6SM FEW020=

USA.gov is the U.S. government's official web portal to all federal, state and local government web resources and services.